WMT4HV LIPH-LATI
Flight info
| Callsign | WMT4HV |
|---|---|
| Flight time | N/A |
| Altitude | 13000 |
| Route | INBUT5B INBUT N503 LAREN/N0319F140 Q561 AKADO/N0429F350 L615 TULIK DCT ROTAR DCT PUL DCT LOS/N0430F370 DCT EBITA DCT SPL DCT SIPAL DCT NERRA DCT BALHA DCT MOKUN DCT TIBRI DCT PETAK |
| Aircraft | A21N/M-SDE1E2E3FGIJ1J4RWXY/LB1 |
Departure
| Time | 2026-04-26 13:13 |
|---|---|
| Airport | Treviso Airport (LIPH) |
Arrival
| Time | N/A |
|---|---|
| Airport | Tirana International Airport Mother Teresa (LATI) |
| Time | Latitude | Longitude | Altitude | Speed | Heading |
|---|---|---|---|---|---|
| 2026-04-26 12:10 | 45.65410 | 12.20537 | 60 ft | 0 kts | 339° |
| 2026-04-26 12:10 | 45.65407 | 12.20540 | 60 ft | 0 kts | 340° |
| 2026-04-26 12:15 | 45.65406 | 12.20540 | 60 ft | 0 kts | 340° |
| 2026-04-26 12:21 | 45.65406 | 12.20541 | 60 ft | 0 kts | 340° |
| 2026-04-26 12:49 | 45.65410 | 12.20537 | 68 ft | 0 kts | 339° |
| 2026-04-26 12:52 | 45.65407 | 12.20540 | 68 ft | 0 kts | 340° |
| 2026-04-26 13:07 | 45.65389 | 12.20549 | 62 ft | 4 kts | 346° |
| 2026-04-26 13:07 | 45.65363 | 12.20553 | 61 ft | 4 kts | 11° |
| 2026-04-26 13:07 | 45.65344 | 12.20538 | 66 ft | 3 kts | 66° |
| 2026-04-26 13:08 | 45.65343 | 12.20534 | 66 ft | 3 kts | 69° |
| 2026-04-26 13:11 | 45.65347 | 12.20551 | 61 ft | 5 kts | 69° |
| 2026-04-26 13:11 | 45.65366 | 12.20620 | 61 ft | 10 kts | 69° |
| 2026-04-26 13:11 | 45.65371 | 12.20717 | 62 ft | 7 kts | 153° |
| 2026-04-26 13:11 | 45.65326 | 12.20752 | 63 ft | 8 kts | 156° |
| 2026-04-26 13:12 | 45.65268 | 12.20784 | 63 ft | 10 kts | 158° |
| 2026-04-26 13:12 | 45.65205 | 12.20755 | 65 ft | 12 kts | 256° |
| 2026-04-26 13:12 | 45.65191 | 12.20690 | 68 ft | 7 kts | 246° |
| 2026-04-26 13:12 | 45.65137 | 12.20490 | 66 ft | 52 kts | 249° |
| 2026-04-26 13:13 | 45.64912 | 12.19642 | 60 ft | 127 kts | 249° |
| 2026-04-26 13:13 | 45.64550 | 12.18250 | 317 ft | 153 kts | 248° |
| 2026-04-26 13:13 | 45.64161 | 12.16837 | 858 ft | 155 kts | 245° |
| 2026-04-26 13:13 | 45.63701 | 12.15436 | 1328 ft | 163 kts | 244° |
| 2026-04-26 13:14 | 45.63214 | 12.13855 | 1683 ft | 187 kts | 245° |
| 2026-04-26 13:14 | 45.62672 | 12.12047 | 2138 ft | 207 kts | 246° |
| 2026-04-26 13:14 | 45.62075 | 12.10076 | 2702 ft | 227 kts | 245° |
| 2026-04-26 13:14 | 45.61391 | 12.07907 | 3157 ft | 251 kts | 244° |
| 2026-04-26 13:15 | 45.60625 | 12.05565 | 3774 ft | 267 kts | 244° |
| 2026-04-26 13:15 | 45.59827 | 12.03134 | 4629 ft | 273 kts | 244° |
| 2026-04-26 13:15 | 45.59019 | 12.00671 | 5533 ft | 276 kts | 244° |
| 2026-04-26 13:15 | 45.58479 | 11.99021 | 6145 ft | 277 kts | 244° |
| 2026-04-26 13:16 | 45.57355 | 11.95681 | 7242 ft | 284 kts | 238° |
| 2026-04-26 13:16 | 45.56006 | 11.93623 | 8029 ft | 288 kts | 214° |
| 2026-04-26 13:16 | 45.54158 | 11.92523 | 8841 ft | 291 kts | 189° |
| 2026-04-26 13:16 | 45.52136 | 11.92607 | 9645 ft | 294 kts | 165° |
| 2026-04-26 13:17 | 45.48254 | 11.94751 | 10729 ft | 318 kts | 156° |
| 2026-04-26 13:17 | 45.46157 | 11.95986 | 11138 ft | 333 kts | 158° |
| 2026-04-26 13:18 | 45.43483 | 11.97514 | 11903 ft | 342 kts | 158° |